Terminal Aerodrome Forecast
Issued by NWS

Home | Current Version | Previous Version | Text Only | Print | Product List | Glossary On
Versions: 1 2 3 4 5 6 7 8 9 10 11 12 13
000
FTUS44 KLUB 041138
TAFCDS
TAF
KCDS 041138Z 0412/0512 19011KT P6SM FEW020 SCT250
     FM041500 18014KT P6SM OVC025
     FM041800 16015G22KT P6SM SCT050 SCT250 PROB30 0500/0506 5SM
      TSRA BKN050CB
     FM050600 15013KT 5SM -TSRA BKN025CB OVC060=

USA.gov is the U.S. government's official web portal to all federal, state and local government web resources and services.